EKBI/BLL METAR and TAF weather

Enter ICAO airport designator
Station Type Date Time Source
EKBI METAR 2021/04/17 01:50 UTC NOAA

EKBI 170150Z AUTO 34003KT 9999 FEW068/// 02/M00 Q1027


Station Type Date Time Source
EKBI Decoded METAR 2021/04/17 01:50 UTC NOAA

Billund Lufthavn, Denmark (EKBI) 55-44N 009-10E 79M
Apr 16, 2021 - 09:50 PM EDT / 2021.04.17 0150 UTC
Wind: from the NNW (340 degrees) at 3 MPH (3 KT):0
Visibility: greater than 7 mile(s):0
Sky conditions: mostly clear
Temperature: 35 F (2 C)
Dew Point: 32 F (0 C)
Relative Humidity: 86%
Pressure (altimeter): 30.33 in. Hg (1027 hPa)
ob: EKBI 170150Z AUTO 34003KT 9999 FEW068/// 02/M00 Q1027
cycle: 2

Station Type Date Time Source
EKBI TAF 2021/04/16 18:31 UTC NOAA

TAF EKBI 161708Z 1618/1718 36008KT 9999 FEW045

Example: see airport list